Time;durP1;ratioP1;P1;durP2;ratioP2;P2;SDS_P1;SDS_P2;PMS_P1;PMS_P2;Temp;Humidity;BMP_temperature;BMP_pressure;BME280_temperature;BME280_humidity;BME280_pressure;Samples;Min_cycle;Max_cycle;Signal;HPM_P1;HPM_P2
2020/12/12 00:01:50;;;;;;;10.05;3.25;;;8.50;99.90;;;;;;5098058;28;20357;-74
2020/12/12 00:04:17;;;;;;;6.13;1.67;;;8.50;99.90;;;;;;5111869;28;20034;-74
2020/12/12 00:06:44;;;;;;;5.20;1.60;;;8.50;99.90;;;;;;5110979;28;20031;-75
2020/12/12 00:09:11;;;;;;;9.90;1.88;;;8.50;99.90;;;;;;5111601;28;20042;-74
2020/12/12 00:11:37;;;;;;;9.65;2.22;;;8.50;99.90;;;;;;5112031;27;20395;-74
2020/12/12 00:14:04;;;;;;;5.30;1.30;;;8.50;99.90;;;;;;5092798;28;20384;-74
2020/12/12 00:16:31;;;;;;;5.05;1.42;;;8.50;99.90;;;;;;5092581;28;20047;-74
2020/12/12 00:18:58;;;;;;;9.10;1.75;;;8.60;99.90;;;;;;5111933;28;20051;-74
2020/12/12 00:21:25;;;;;;;10.65;2.53;;;8.60;99.90;;;;;;5110959;28;20475;-74
2020/12/12 00:23:52;;;;;;;8.32;2.05;;;8.60;99.90;;;;;;5096239;28;20450;-74
2020/12/12 00:26:25;;;;;;;7.25;1.60;;;8.60;99.90;;;;;;5105292;28;20042;-75
2020/12/12 00:28:55;;;;;;;8.18;2.28;;;8.60;99.90;;;;;;5112834;28;20031;-74
2020/12/12 00:31:22;;;;;;;8.60;1.60;;;8.60;99.90;;;;;;5098108;28;20488;-75
2020/12/12 00:33:49;;;;;;;7.75;2.00;;;8.60;99.90;;;;;;5105351;28;20036;-74
2020/12/12 00:36:16;;;;;;;9.30;2.83;;;8.60;99.90;;;;;;5112765;28;20403;-74
2020/12/12 00:38:43;;;;;;;10.57;1.67;;;8.60;99.90;;;;;;5111841;28;20036;-74
2020/12/12 00:41:10;;;;;;;5.60;1.67;;;8.50;99.90;;;;;;5105989;28;20039;-75
2020/12/12 00:43:37;;;;;;;6.00;2.15;;;8.60;99.90;;;;;;5091750;28;20366;-74
2020/12/12 00:46:04;;;;;;;7.05;1.55;;;8.50;99.90;;;;;;5096284;28;20032;-75
2020/12/12 00:48:31;;;;;;;10.98;2.03;;;8.50;99.90;;;;;;5112174;28;20027;-74
2020/12/12 00:50:58;;;;;;;10.15;1.60;;;8.50;99.90;;;;;;5095878;28;20058;-74
2020/12/12 00:53:25;;;;;;;6.30;1.30;;;8.50;99.90;;;;;;5095308;28;20706;-76
2020/12/12 00:55:56;;;;;;;7.57;1.83;;;8.40;99.90;;;;;;5111916;28;20039;-75
2020/12/12 00:58:23;;;;;;;11.02;2.15;;;8.50;99.90;;;;;;5109352;28;20035;-73
2020/12/12 01:00:50;;;;;;;10.10;2.10;;;8.40;99.90;;;;;;5088294;28;20039;-74
2020/12/12 01:03:17;;;;;;;7.82;2.10;;;8.40;99.90;;;;;;5092518;28;20036;-74
2020/12/12 01:05:44;;;;;;;8.75;1.83;;;8.40;99.90;;;;;;5107379;28;20032;-74
2020/12/12 01:08:10;;;;;;;6.25;1.80;;;8.30;99.90;;;;;;5090490;28;20043;-74
2020/12/12 01:10:40;;;;;;;6.40;1.52;;;8.40;99.90;;;;;;5093050;28;20043;-75
2020/12/12 01:13:07;;;;;;;15.48;2.85;;;8.40;99.90;;;;;;5095256;28;20044;-74
2020/12/12 01:15:34;;;;;;;15.48;2.22;;;8.40;99.90;;;;;;5106427;28;20023;-75
2020/12/12 01:18:01;;;;;;;10.18;2.47;;;8.30;99.90;;;;;;5111046;28;20043;-75
2020/12/12 01:20:27;;;;;;;7.07;1.83;;;8.30;99.90;;;;;;5112569;28;20039;-76
2020/12/12 01:22:55;;;;;;;8.10;1.60;;;8.30;99.90;;;;;;5111109;28;20369;-74
2020/12/12 01:25:22;;;;;;;5.45;1.50;;;8.30;99.90;;;;;;5104818;28;20024;-75
2020/12/12 01:27:50;;;;;;;5.95;1.42;;;8.20;99.90;;;;;;5102564;28;20443;-75
2020/12/12 01:30:17;;;;;;;10.35;2.35;;;8.20;99.90;;;;;;5111736;28;20043;-74
2020/12/12 01:32:44;;;;;;;9.55;1.88;;;8.20;99.90;;;;;;5111058;28;20049;-74
2020/12/12 01:35:11;;;;;;;7.28;1.45;;;8.20;99.90;;;;;;5105347;28;20043;-74
2020/12/12 01:37:38;;;;;;;7.45;1.77;;;8.20;99.90;;;;;;5126367;27;20054;-75
2020/12/12 01:40:05;;;;;;;7.07;1.55;;;8.20;99.90;;;;;;5129491;27;20035;-75
2020/12/12 01:42:35;;;;;;;5.63;1.58;;;8.20;99.90;;;;;;5111255;28;20031;-77
2020/12/12 01:45:02;;;;;;;6.85;1.85;;;8.20;99.90;;;;;;5111791;28;20050;-75
2020/12/12 01:47:29;;;;;;;8.20;2.97;;;8.10;99.90;;;;;;5111292;28;20039;-75
2020/12/12 01:49:57;;;;;;;9.55;2.35;;;8.10;99.90;;;;;;5111467;28;20038;-76
2020/12/12 01:52:24;;;;;;;14.95;3.70;;;8.20;99.90;;;;;;5109883;28;20440;-75
2020/12/12 01:54:52;;;;;;;8.32;3.72;;;8.10;99.90;;;;;;5110708;28;20043;-75
2020/12/12 01:57:21;;;;;;;7.80;2.78;;;8.20;99.90;;;;;;5108944;28;20051;-76
2020/12/12 01:59:52;;;;;;;6.65;1.90;;;8.20;99.90;;;;;;5111228;28;20028;-74
2020/12/12 02:02:21;;;;;;;7.53;1.88;;;8.20;99.90;;;;;;5111000;28;20031;-76
2020/12/12 02:04:52;;;;;;;2.95;1.05;;;8.20;99.90;;;;;;5111397;28;20043;-75
2020/12/12 02:07:20;;;;;;;9.53;3.07;;;8.20;99.90;;;;;;5111663;28;20027;-75
2020/12/12 02:09:48;;;;;;;5.88;1.23;;;8.20;99.90;;;;;;5110981;28;20272;-74
2020/12/12 02:12:17;;;;;;;10.13;1.63;;;8.20;99.90;;;;;;5103532;28;20047;-74
2020/12/12 02:14:44;;;;;;;7.43;1.75;;;8.20;99.90;;;;;;5095307;28;20032;-75
2020/12/12 02:17:11;;;;;;;8.90;2.40;;;8.30;99.90;;;;;;5095093;28;20469;-75
2020/12/12 02:19:38;;;;;;;11.20;2.60;;;8.30;99.90;;;;;;5101941;28;20066;-73
2020/12/12 02:22:07;;;;;;;7.88;2.13;;;8.30;99.90;;;;;;5113417;28;20035;-76
2020/12/12 02:24:34;;;;;;;11.73;2.42;;;8.30;99.90;;;;;;5114862;28;20040;-80
2020/12/12 02:27:04;;;;;;;9.68;2.05;;;8.30;99.90;;;;;;5108639;28;20036;-74
2020/12/12 02:29:51;;;;;;;11.05;2.05;;;8.30;99.90;;;;;;5094234;28;20471;-76
2020/12/12 02:32:19;;;;;;;12.02;2.05;;;8.30;99.90;;;;;;5095834;28;20047;-75
2020/12/12 02:34:46;;;;;;;10.02;1.80;;;8.30;99.90;;;;;;5094657;28;20456;-76
2020/12/12 02:37:13;;;;;;;11.13;3.00;;;8.30;99.90;;;;;;5098477;28;20048;-74
2020/12/12 02:39:40;;;;;;;7.57;2.05;;;8.30;99.90;;;;;;5114857;28;20051;-75
2020/12/12 02:42:07;;;;;;;9.40;2.58;;;8.30;99.90;;;;;;5112513;28;20055;-74
2020/12/12 02:44:34;;;;;;;12.38;4.15;;;8.30;99.90;;;;;;5115094;28;20066;-76
2020/12/12 02:47:01;;;;;;;8.35;2.10;;;8.30;99.90;;;;;;5103948;28;20020;-75
2020/12/12 02:49:28;;;;;;;9.07;1.88;;;8.40;99.90;;;;;;5111694;28;20023;-75
2020/12/12 02:51:55;;;;;;;7.38;1.80;;;8.40;99.90;;;;;;5112196;28;20379;-75
2020/12/12 02:54:21;;;;;;;10.52;2.30;;;8.40;99.90;;;;;;5093972;28;20035;-74
2020/12/12 02:56:48;;;;;;;8.00;2.05;;;8.40;99.90;;;;;;5093403;28;20035;-75
2020/12/12 02:59:15;;;;;;;9.48;2.17;;;8.40;99.90;;;;;;5094141;28;20380;-75
2020/12/12 03:01:42;;;;;;;10.73;2.00;;;8.40;99.90;;;;;;5094179;28;20468;-75
2020/12/12 03:04:09;;;;;;;6.85;1.77;;;8.20;99.90;;;;;;5093915;28;20451;-75
2020/12/12 03:06:38;;;;;;;9.82;2.33;;;8.20;99.90;;;;;;5094025;28;20029;-73
2020/12/12 03:09:05;;;;;;;12.05;2.03;;;8.10;99.90;;;;;;5093641;28;20034;-74
2020/12/12 03:11:32;;;;;;;8.82;2.75;;;8.10;99.90;;;;;;5107521;28;20368;-76
2020/12/12 03:14:02;;;;;;;8.15;2.60;;;8.10;99.90;;;;;;5114182;28;20030;-75
2020/12/12 03:16:29;;;;;;;13.32;2.10;;;8.10;99.90;;;;;;5114188;28;20031;-75
2020/12/12 03:18:56;;;;;;;14.82;2.42;;;8.10;99.90;;;;;;5114122;28;20028;-77
2020/12/12 03:21:26;;;;;;;9.02;1.92;;;8.10;99.90;;;;;;5114022;28;20593;-74
2020/12/12 03:23:53;;;;;;;14.95;3.22;;;8.20;99.90;;;;;;5112720;28;20375;-74
2020/12/12 03:26:20;;;;;;;6.88;1.55;;;8.20;99.90;;;;;;5113736;28;20043;-74
2020/12/12 03:28:47;;;;;;;8.73;1.80;;;8.30;99.90;;;;;;5113006;28;20396;-75
2020/12/12 03:31:14;;;;;;;6.97;1.92;;;8.30;99.90;;;;;;5114472;28;20019;-77
2020/12/12 03:33:41;;;;;;;9.15;2.10;;;8.40;99.90;;;;;;5113423;28;20027;-76
2020/12/12 03:36:08;;;;;;;8.35;2.17;;;8.40;99.90;;;;;;5107932;28;20453;-75
2020/12/12 03:38:35;;;;;;;10.02;1.95;;;8.40;99.90;;;;;;5102558;28;20039;-75
2020/12/12 03:41:02;;;;;;;9.88;2.08;;;8.40;99.90;;;;;;5093235;28;20039;-75
2020/12/12 03:43:29;;;;;;;11.10;2.25;;;8.40;99.90;;;;;;5101593;28;20043;-76
2020/12/12 03:45:56;;;;;;;9.30;2.55;;;8.40;99.90;;;;;;5107600;28;20038;-73
2020/12/12 03:48:24;;;;;;;12.13;2.10;;;8.30;99.90;;;;;;5113256;28;20023;-72
2020/12/12 03:50:51;;;;;;;5.15;1.80;;;8.30;99.90;;;;;;5113684;28;20019;-77
2020/12/12 03:53:18;;;;;;;7.22;2.00;;;8.30;99.90;;;;;;5113384;28;20032;-76
2020/12/12 03:55:45;;;;;;;10.45;2.40;;;8.20;99.90;;;;;;5113414;28;20029;-72
2020/12/12 03:58:12;;;;;;;8.48;2.00;;;8.10;99.90;;;;;;5111320;28;20044;-73
2020/12/12 04:00:39;;;;;;;8.25;2.72;;;8.10;99.90;;;;;;5106742;28;20030;-74
2020/12/12 04:03:06;;;;;;;12.27;2.90;;;8.10;99.90;;;;;;5094754;28;20035;-77
2020/12/12 04:05:33;;;;;;;9.60;3.35;;;8.00;99.90;;;;;;5092788;28;20487;-74
2020/12/12 04:08:00;;;;;;;18.63;3.60;;;7.80;99.90;;;;;;5096637;28;20119;-77
2020/12/12 04:10:27;;;;;;;10.35;2.15;;;7.70;99.90;;;;;;5111639;28;20024;-74
2020/12/12 04:12:54;;;;;;;15.30;3.50;;;7.70;99.90;;;;;;5113333;28;20717;-75
2020/12/12 04:15:21;;;;;;;9.55;4.50;;;7.60;99.90;;;;;;5098601;28;20035;-75
2020/12/12 04:17:48;;;;;;;9.57;2.95;;;7.60;99.90;;;;;;5093038;28;20130;-75
2020/12/12 04:20:18;;;;;;;10.27;3.75;;;7.60;99.90;;;;;;5102272;28;20467;-75
2020/12/12 04:22:45;;;;;;;9.50;5.15;;;7.60;99.90;;;;;;5112870;28;20040;-75
2020/12/12 04:25:12;;;;;;;18.30;5.53;;;7.60;99.90;;;;;;5098761;28;20027;-74
2020/12/12 04:27:39;;;;;;;12.35;3.60;;;7.60;99.90;;;;;;5092794;28;20361;-75
2020/12/12 04:30:06;;;;;;;9.07;3.60;;;7.60;99.90;;;;;;5106126;28;20031;-76
2020/12/12 04:32:33;;;;;;;18.20;5.43;;;7.60;99.90;;;;;;5113027;28;20028;-74
2020/12/12 04:35:00;;;;;;;16.58;6.40;;;7.60;99.90;;;;;;5099024;28;20024;-74
2020/12/12 04:37:27;;;;;;;8.88;3.65;;;7.60;99.90;;;;;;5092518;28;20399;-74
2020/12/12 04:39:54;;;;;;;8.13;3.15;;;7.60;99.90;;;;;;5107382;28;20051;-75
2020/12/12 04:42:22;;;;;;;8.35;3.63;;;7.70;99.90;;;;;;5113037;28;20028;-75
2020/12/12 04:44:50;;;;;;;15.68;4.90;;;7.80;99.90;;;;;;5111987;28;20035;-75
2020/12/12 04:47:18;;;;;;;12.07;5.13;;;7.80;99.90;;;;;;5093347;28;20020;-75
2020/12/12 04:49:46;;;;;;;12.15;6.15;;;7.80;99.90;;;;;;5103325;28;20428;-73
2020/12/12 04:52:21;;;;;;;9.32;5.60;;;7.80;99.90;;;;;;5112386;28;20487;-73
2020/12/12 04:54:48;;;;;;;13.32;7.50;;;7.90;99.90;;;;;;5110338;28;20480;-73
2020/12/12 04:57:15;;;;;;;11.27;6.28;;;7.90;99.90;;;;;;5111990;28;20048;-75
2020/12/12 04:59:44;;;;;;;14.50;7.45;;;8.00;99.90;;;;;;5100004;28;20028;-75
2020/12/12 05:02:14;;;;;;;12.77;7.40;;;8.00;99.90;;;;;;5091609;28;20487;-71
2020/12/12 05:04:41;;;;;;;18.73;8.27;;;8.10;99.90;;;;;;5092803;28;20047;-75
2020/12/12 05:07:09;;;;;;;10.90;6.80;;;8.10;99.90;;;;;;5091370;28;20032;-76
2020/12/12 05:09:36;;;;;;;13.75;8.90;;;8.10;99.90;;;;;;5099104;28;20340;-74
2020/12/12 05:12:03;;;;;;;10.45;6.57;;;8.20;99.90;;;;;;5103334;28;20385;-76
2020/12/12 05:14:30;;;;;;;9.65;6.75;;;8.20;99.90;;;;;;5093766;28;20046;-74
2020/12/12 05:16:58;;;;;;;82.97;11.30;;;8.30;99.90;;;;;;5111500;28;20046;-76
2020/12/12 05:19:25;;;;;;;86.70;12.80;;;8.30;99.90;;;;;;5111663;28;20024;-76
2020/12/12 05:21:54;;;;;;;47.00;10.50;;;8.30;99.90;;;;;;5109634;28;20035;-73
2020/12/12 05:24:26;;;;;;;16.23;7.53;;;8.30;99.90;;;;;;5108194;28;20044;-76
2020/12/12 05:27:00;;;;;;;5.88;4.63;;;8.40;99.90;;;;;;5105593;28;20039;-76
2020/12/12 05:29:27;;;;;;;9.77;5.63;;;8.40;99.90;;;;;;5109918;28;20040;-74
2020/12/12 05:31:58;;;;;;;36.00;7.53;;;8.40;99.90;;;;;;5110075;28;20459;-76
2020/12/12 05:34:27;;;;;;;45.22;9.77;;;8.50;99.90;;;;;;5104924;28;20043;-77
2020/12/12 05:36:54;;;;;;;11.60;7.25;;;8.50;99.90;;;;;;5109905;28;20042;-75
2020/12/12 05:39:21;;;;;;;25.20;8.13;;;8.50;99.90;;;;;;5089425;28;20353;-74
2020/12/12 05:41:49;;;;;;;26.25;9.05;;;8.50;99.90;;;;;;5097185;28;20077;-74
2020/12/12 05:44:18;;;;;;;16.25;8.60;;;8.50;99.90;;;;;;5109275;28;20044;-74
2020/12/12 05:46:46;;;;;;;89.40;13.30;;;8.50;99.90;;;;;;5108999;28;20032;-75
2020/12/12 05:49:14;;;;;;;71.50;11.35;;;8.50;99.90;;;;;;5094350;28;20032;-76
2020/12/12 05:51:41;;;;;;;83.40;12.35;;;8.60;99.90;;;;;;5091517;28;20128;-77
2020/12/12 05:54:08;;;;;;;123.25;14.20;;;8.60;99.90;;;;;;5105248;28;20491;-77
2020/12/12 05:56:36;;;;;;;283.52;21.88;;;8.60;99.90;;;;;;5107033;28;20352;-76
2020/12/12 05:59:03;;;;;;;234.35;17.55;;;8.60;99.90;;;;;;5108823;28;20044;-77
2020/12/12 06:01:31;;;;;;;190.90;16.02;;;8.60;99.90;;;;;;5090893;28;20035;-78
2020/12/12 06:04:03;;;;;;;86.07;13.65;;;8.60;99.90;;;;;;5094220;28;20165;-75
2020/12/12 06:06:31;;;;;;;344.52;21.80;;;8.60;99.90;;;;;;5102130;28;20509;-76
2020/12/12 06:09:09;;;;;;;176.80;14.80;;;8.60;99.90;;;;;;5109986;28;20047;-77
2020/12/12 06:11:47;;;;;;;175.70;14.57;;;8.70;99.90;;;;;;5093569;28;20421;-75
2020/12/12 06:14:14;;;;;;;289.98;22.98;;;8.70;99.90;;;;;;5090433;28;20040;-75
2020/12/12 06:16:41;;;;;;;521.78;41.17;;;8.70;99.90;;;;;;5108844;28;20030;-75
2020/12/12 06:19:13;;;;;;;425.98;30.98;;;8.70;99.90;;;;;;5108681;28;20036;-76
2020/12/12 06:21:42;;;;;;;404.38;29.00;;;8.70;99.90;;;;;;5090335;28;20032;-74
2020/12/12 06:24:12;;;;;;;103.00;11.65;;;8.70;99.90;;;;;;5107812;28;20047;-74
2020/12/12 06:27:02;;;;;;;80.55;9.10;;;8.70;99.90;;;;;;5100088;28;20027;-75
2020/12/12 06:29:52;;;;;;;135.25;13.07;;;8.70;99.90;;;;;;5090234;28;20044;-76
2020/12/12 06:32:19;;;;;;;113.28;9.95;;;8.70;99.90;;;;;;5088972;28;20037;-76
2020/12/12 06:34:48;;;;;;;173.52;16.95;;;8.80;99.90;;;;;;5097223;28;20105;-76
2020/12/12 06:37:38;;;;;;;372.80;26.92;;;8.80;99.90;;;;;;5108640;28;20131;-75
2020/12/12 06:40:10;;;;;;;277.17;18.55;;;8.80;99.90;;;;;;5108481;28;20066;-76
2020/12/12 06:42:41;;;;;;;403.95;23.92;;;8.80;99.90;;;;;;5110030;28;20020;-76
2020/12/12 06:45:17;;;;;;;494.20;32.50;;;8.90;99.90;;;;;;5110507;28;20039;-77
2020/12/12 06:47:54;;;;;;;683.80;39.83;;;8.90;99.90;;;;;;5104445;28;20031;-76
2020/12/12 06:50:30;;;;;;;361.27;27.38;;;8.90;99.90;;;;;;5108562;28;20039;-76
2020/12/12 06:52:58;;;;;;;351.67;22.38;;;8.90;99.90;;;;;;5110138;28;20019;-75
2020/12/12 06:55:25;;;;;;;342.73;23.63;;;9.00;99.90;;;;;;5110307;28;20035;-76
2020/12/12 06:57:58;;;;;;;404.67;25.05;;;9.00;99.90;;;;;;5106554;28;20403;-79
2020/12/12 07:00:34;;;;;;;334.15;21.38;;;9.00;99.90;;;;;;5110588;28;20047;-80
2020/12/12 07:03:04;;;;;;;403.92;25.48;;;9.00;99.90;;;;;;5114838;28;20411;-85
2020/12/12 07:05:36;;;;;;;389.08;26.67;;;9.00;99.90;;;;;;5114680;28;20467;-82
2020/12/12 07:08:07;;;;;;;91.07;7.72;;;9.10;99.90;;;;;;5112723;28;20068;-79
2020/12/12 07:10:40;;;;;;;275.88;16.42;;;9.10;99.90;;;;;;5113789;28;20028;-79
2020/12/12 07:13:08;;;;;;;44.35;4.85;;;9.10;99.90;;;;;;5114040;28;20072;-79
2020/12/12 07:15:38;;;;;;;14.60;2.70;;;9.10;99.90;;;;;;5113067;28;20046;-79
2020/12/12 07:18:11;;;;;;;8.15;4.85;;;9.20;99.90;;;;;;5113411;28;20031;-77
2020/12/12 07:20:49;;;;;;;263.23;16.33;;;9.30;99.90;;;;;;5113613;28;20020;-80
2020/12/12 07:23:20;;;;;;;242.43;13.77;;;9.30;99.90;;;;;;5113478;28;20035;-80
2020/12/12 07:25:47;;;;;;;412.90;23.37;;;9.30;99.90;;;;;;5112238;28;20032;-76
2020/12/12 07:28:14;;;;;;;352.23;17.70;;;9.30;99.90;;;;;;5113653;28;20252;-78
2020/12/12 07:30:41;;;;;;;173.82;10.63;;;9.30;99.90;;;;;;5113576;28;20039;-76
2020/12/12 07:33:08;;;;;;;161.13;11.55;;;9.30;99.90;;;;;;5113181;28;20054;-78
2020/12/12 07:35:35;;;;;;;126.53;11.57;;;9.40;99.90;;;;;;5113719;28;20028;-77
2020/12/12 07:38:06;;;;;;;75.78;6.60;;;9.40;99.90;;;;;;5113598;28;20035;-79
2020/12/12 07:40:37;;;;;;;66.07;5.55;;;9.50;99.90;;;;;;5113297;28;20015;-77
2020/12/12 07:43:08;;;;;;;158.07;9.77;;;9.60;99.90;;;;;;5113183;28;20036;-81
2020/12/12 07:46:01;;;;;;;181.48;11.32;;;9.60;99.90;;;;;;5111475;28;20040;-79
2020/12/12 07:48:28;;;;;;;146.48;8.93;;;9.60;99.90;;;;;;5112420;28;20036;-78
2020/12/12 07:50:55;;;;;;;184.00;12.98;;;9.60;99.90;;;;;;5113432;28;20027;-77
2020/12/12 07:53:22;;;;;;;232.20;11.43;;;9.60;99.90;;;;;;5102000;28;20035;-78
2020/12/12 07:55:59;;;;;;;279.45;12.30;;;9.60;99.90;;;;;;5102753;28;20536;-79
2020/12/12 07:58:32;;;;;;;265.27;11.75;;;9.60;99.90;;;;;;5110614;28;20050;-77
2020/12/12 08:01:04;;;;;;;128.82;6.78;;;9.60;99.90;;;;;;5100796;28;20040;-78
2020/12/12 08:03:33;;;;;;;202.60;11.90;;;9.60;99.90;;;;;;5103539;28;20117;-77
2020/12/12 08:06:07;;;;;;;236.68;10.50;;;9.60;99.90;;;;;;5092393;28;20036;-79
2020/12/12 08:08:35;;;;;;;335.67;13.68;;;9.60;99.90;;;;;;5102861;28;20032;-78
2020/12/12 08:11:04;;;;;;;237.43;10.68;;;9.60;99.90;;;;;;5100814;28;20383;-78
2020/12/12 08:13:34;;;;;;;166.32;8.00;;;9.70;99.90;;;;;;5093978;28;20020;-80
2020/12/12 08:18:38;;;;;;;209.07;10.40;;;10.00;99.90;;;;;;5113916;28;20020;-81
2020/12/12 08:21:19;;;;;;;108.43;6.32;;;10.00;99.90;;;;;;5110105;28;20042;-79
2020/12/12 08:23:46;;;;;;;58.10;6.47;;;10.10;99.90;;;;;;5093411;28;20048;-81
2020/12/12 08:26:18;;;;;;;152.43;8.45;;;10.10;99.90;;;;;;5095105;28;20035;-79
2020/12/12 08:28:45;;;;;;;152.65;7.47;;;10.20;99.90;;;;;;5109593;28;20516;-78
2020/12/12 08:31:17;;;;;;;140.95;5.22;;;10.20;99.90;;;;;;5096593;28;20042;-79
2020/12/12 08:33:47;;;;;;;182.18;8.80;;;10.20;99.90;;;;;;5110137;28;20028;-79
2020/12/12 08:36:16;;;;;;;193.95;9.15;;;10.20;99.90;;;;;;5111896;28;20043;-80
2020/12/12 08:38:51;;;;;;;267.70;10.50;;;10.30;99.90;;;;;;5095920;28;20024;-80
2020/12/12 08:41:18;;;;;;;245.77;8.57;;;10.30;99.90;;;;;;5092349;28;20421;-79
2020/12/12 08:43:45;;;;;;;142.07;5.53;;;10.20;99.90;;;;;;5091949;28;20329;-80
2020/12/12 08:46:17;;;;;;;143.02;5.47;;;10.30;99.90;;;;;;5112270;28;20024;-77
2020/12/12 08:48:44;;;;;;;121.57;4.50;;;10.40;99.90;;;;;;5110137;28;20035;-78
2020/12/12 08:51:12;;;;;;;52.83;2.92;;;10.50;99.90;;;;;;5109823;28;20039;-76
2020/12/12 08:53:43;;;;;;;91.43;4.22;;;10.60;99.90;;;;;;5094967;27;20515;-76
2020/12/12 08:56:11;;;;;;;95.95;3.28;;;10.60;99.90;;;;;;5092672;28;20388;-77
2020/12/12 08:59:04;;;;;;;101.13;3.50;;;10.70;99.90;;;;;;5091593;28;20063;-78
2020/12/12 09:01:44;;;;;;;63.78;2.40;;;10.70;99.90;;;;;;5091538;28;20040;-77
2020/12/12 09:04:13;;;;;;;91.85;3.65;;;10.70;99.90;;;;;;5090731;28;20360;-77
2020/12/12 09:06:46;;;;;;;50.28;2.28;;;10.80;99.90;;;;;;5092191;28;20445;-78
2020/12/12 09:09:24;;;;;;;151.15;5.10;;;10.70;99.90;;;;;;5091449;28;20028;-76
2020/12/12 09:12:07;;;;;;;51.47;2.45;;;10.70;99.90;;;;;;5109040;28;20058;-77
2020/12/12 09:14:41;;;;;;;74.35;2.92;;;10.80;99.90;;;;;;5110972;28;20038;-77
2020/12/12 09:17:14;;;;;;;45.42;3.10;;;10.70;99.90;;;;;;5104751;28;20053;-78
2020/12/12 09:19:41;;;;;;;79.10;3.45;;;10.80;99.90;;;;;;5111787;28;20046;-77
2020/12/12 09:22:10;;;;;;;37.38;2.22;;;10.70;99.90;;;;;;5110688;28;20020;-77
2020/12/12 09:24:37;;;;;;;67.50;3.90;;;10.70;99.90;;;;;;5111335;28;20047;-77
2020/12/12 09:27:04;;;;;;;134.13;4.60;;;10.80;99.90;;;;;;5101961;28;20059;-77
2020/12/12 09:29:31;;;;;;;54.45;2.42;;;10.80;99.90;;;;;;5092323;28;20032;-77
2020/12/12 09:31:58;;;;;;;103.20;3.40;;;10.80;99.90;;;;;;5096802;28;20050;-78
2020/12/12 09:34:25;;;;;;;75.85;3.35;;;10.80;99.90;;;;;;5110869;28;20039;-78
2020/12/12 09:36:53;;;;;;;77.28;4.20;;;10.90;99.90;;;;;;5109367;28;20039;-77
2020/12/12 09:39:22;;;;;;;50.55;2.10;;;10.90;99.90;;;;;;5092927;28;20507;-79
2020/12/12 09:41:49;;;;;;;44.47;2.42;;;10.90;99.90;;;;;;5098067;28;20023;-78
2020/12/12 09:44:16;;;;;;;28.90;1.55;;;10.90;99.90;;;;;;5090758;28;20044;-78
2020/12/12 09:46:42;;;;;;;127.25;5.10;;;11.00;99.90;;;;;;5096803;28;20359;-77
2020/12/12 09:49:09;;;;;;;44.90;1.90;;;11.00;99.90;;;;;;5092051;28;20028;-76
2020/12/12 09:51:36;;;;;;;119.70;4.03;;;11.00;99.90;;;;;;5107158;28;20467;-76
2020/12/12 09:54:03;;;;;;;162.85;3.80;;;11.10;99.90;;;;;;5092832;28;20051;-82
2020/12/12 09:56:30;;;;;;;80.63;2.33;;;11.10;99.90;;;;;;5091669;28;20024;-81
2020/12/12 09:58:57;;;;;;;54.92;2.03;;;11.10;99.90;;;;;;5101420;28;20044;-81
2020/12/12 10:01:24;;;;;;;78.63;2.70;;;11.10;99.90;;;;;;5111539;28;20019;-81
2020/12/12 10:03:51;;;;;;;145.38;5.20;;;11.20;99.90;;;;;;5094710;28;20448;-81
2020/12/12 10:06:18;;;;;;;61.22;3.00;;;11.20;99.90;;;;;;5102036;28;20058;-81
2020/12/12 10:08:45;;;;;;;48.60;2.67;;;11.20;99.90;;;;;;5100952;28;20040;-81
2020/12/12 10:11:12;;;;;;;21.67;1.80;;;11.20;99.90;;;;;;5090253;28;20040;-81
2020/12/12 10:13:39;;;;;;;105.75;3.50;;;11.20;99.90;;;;;;5107394;28;20027;-81
2020/12/12 10:16:06;;;;;;;158.88;4.35;;;11.30;99.90;;;;;;5097905;28;20372;-79
2020/12/12 10:18:33;;;;;;;64.20;2.63;;;11.30;99.90;;;;;;5090510;28;20539;-79
2020/12/12 10:21:00;;;;;;;107.13;4.47;;;11.30;99.90;;;;;;5100571;28;20411;-78
2020/12/12 10:23:27;;;;;;;88.35;3.08;;;11.30;99.90;;;;;;5112965;28;20363;-82
2020/12/12 10:25:54;;;;;;;63.50;2.30;;;11.20;99.90;;;;;;5100608;28;20028;-82
2020/12/12 10:28:21;;;;;;;60.50;2.28;;;11.20;99.90;;;;;;5101356;28;20032;-81
2020/12/12 10:30:48;;;;;;;92.07;2.85;;;11.20;99.90;;;;;;5096845;28;20349;-82
2020/12/12 10:33:15;;;;;;;32.75;1.30;;;11.20;99.90;;;;;;5092480;28;20027;-81
2020/12/12 10:35:42;;;;;;;50.55;1.38;;;11.20;99.90;;;;;;5113470;28;20467;-82
2020/12/12 10:38:10;;;;;;;32.15;1.48;;;11.20;99.90;;;;;;5104707;28;20763;-82
2020/12/12 10:40:47;;;;;;;38.38;1.38;;;11.30;99.90;;;;;;5094027;28;20093;-82
2020/12/12 10:43:14;;;;;;;36.55;1.25;;;11.30;99.90;;;;;;5113318;28;20028;-82
2020/12/12 10:45:42;;;;;;;54.65;1.70;;;11.30;99.90;;;;;;5109637;28;20036;-82
2020/12/12 10:48:09;;;;;;;25.23;1.20;;;11.30;99.90;;;;;;5094387;28;20028;-82
2020/12/12 10:50:36;;;;;;;33.45;1.13;;;11.40;99.90;;;;;;5093751;28;20032;-83
2020/12/12 10:53:03;;;;;;;72.53;2.15;;;11.40;99.90;;;;;;5106822;28;20027;-82
2020/12/12 10:55:30;;;;;;;46.83;1.65;;;11.40;99.90;;;;;;5108884;28;20028;-82
2020/12/12 10:58:00;;;;;;;35.78;1.98;;;11.40;99.90;;;;;;5095146;28;20065;-82
2020/12/12 11:00:29;;;;;;;53.45;1.60;;;11.40;99.90;;;;;;5108161;28;20371;-81
2020/12/12 11:02:55;;;;;;;57.50;2.22;;;11.40;99.90;;;;;;5102005;28;20502;-82
2020/12/12 11:05:22;;;;;;;51.65;1.52;;;11.40;99.90;;;;;;5093736;28;20051;-82
2020/12/12 11:07:50;;;;;;;37.70;1.52;;;11.40;99.90;;;;;;5101854;28;20042;-81
2020/12/12 11:10:18;;;;;;;43.00;1.60;;;11.40;99.90;;;;;;5114490;28;20115;-82
2020/12/12 11:12:45;;;;;;;32.92;1.42;;;11.40;99.90;;;;;;5104330;28;20095;-81
2020/12/12 11:15:15;;;;;;;34.35;1.27;;;11.40;99.90;;;;;;5093992;28;20428;-81
2020/12/12 11:17:42;;;;;;;88.80;3.25;;;11.40;99.90;;;;;;5099369;28;20039;-81
2020/12/12 11:20:10;;;;;;;56.13;2.13;;;11.30;99.90;;;;;;5108943;28;20472;-81
2020/12/12 11:22:40;;;;;;;67.00;2.08;;;11.30;99.90;;;;;;5099035;28;20028;-82
2020/12/12 11:25:08;;;;;;;55.90;2.08;;;11.30;99.90;;;;;;5110893;28;20036;-82
2020/12/12 11:27:35;;;;;;;21.65;1.02;;;11.30;99.90;;;;;;5095896;28;20083;-81
2020/12/12 11:30:04;;;;;;;70.90;2.30;;;11.30;99.90;;;;;;5106097;28;20024;-81
2020/12/12 11:32:32;;;;;;;101.43;3.10;;;11.30;99.90;;;;;;5092982;28;20055;-80
2020/12/12 11:35:11;;;;;;;134.60;3.33;;;11.30;99.90;;;;;;5109489;28;20451;-78
2020/12/12 11:40:36;;;;;;;78.93;2.97;;;11.30;99.90;;;;;;5094388;28;20032;-80
2020/12/12 11:48:36;;;;;;;110.28;3.92;;;11.30;99.90;;;;;;5088392;28;20036;-76
2020/12/12 11:51:03;;;;;;;206.63;5.45;;;11.30;99.90;;;;;;5073151;28;20036;-79
2020/12/12 11:53:30;;;;;;;118.75;3.70;;;11.30;99.90;;;;;;5076037;28;20039;-78
2020/12/12 11:55:57;;;;;;;158.77;4.75;;;11.40;99.90;;;;;;5070429;28;20380;-77
2020/12/12 11:58:24;;;;;;;83.15;2.50;;;11.40;99.90;;;;;;5085366;28;20051;-77
2020/12/12 12:00:51;;;;;;;63.83;2.47;;;11.40;99.90;;;;;;5071046;28;20036;-77
2020/12/12 12:03:18;;;;;;;152.15;4.20;;;11.40;99.90;;;;;;5071184;28;20071;-77
2020/12/12 12:05:48;;;;;;;170.32;4.43;;;11.50;99.90;;;;;;5069790;28;20048;-77
2020/12/12 12:08:23;;;;;;;70.82;2.05;;;11.50;99.90;;;;;;5080944;28;20059;-77
2020/12/12 12:13:43;;;;;;;70.20;2.38;;;11.50;99.90;;;;;;5088475;28;20449;-78
2020/12/12 12:16:16;;;;;;;56.53;1.48;;;11.50;99.90;;;;;;5075969;28;20146;-79
2020/12/12 12:18:43;;;;;;;58.55;1.67;;;11.50;99.90;;;;;;5084789;28;20484;-78
2020/12/12 12:21:10;;;;;;;59.65;1.80;;;11.50;99.90;;;;;;5070362;28;20067;-78
2020/12/12 12:23:37;;;;;;;48.75;1.58;;;11.50;99.90;;;;;;5095722;28;20044;-77
2020/12/12 12:26:04;;;;;;;89.95;1.98;;;11.50;99.90;;;;;;5111905;28;20388;-77
2020/12/12 12:28:32;;;;;;;27.85;0.85;;;11.50;99.90;;;;;;5109695;28;20058;-81
2020/12/12 12:30:59;;;;;;;65.82;1.60;;;11.50;99.90;;;;;;5108996;28;20387;-81
2020/12/12 12:33:26;;;;;;;14.40;0.47;;;11.50;99.90;;;;;;5108844;28;20498;-82
2020/12/12 12:35:53;;;;;;;73.38;1.60;;;11.50;99.90;;;;;;5112175;28;20039;-82
2020/12/12 12:38:20;;;;;;;42.47;1.20;;;11.50;99.90;;;;;;5108988;28;20039;-84
2020/12/12 12:40:47;;;;;;;92.72;2.05;;;11.50;99.90;;;;;;5092090;28;20396;-81
2020/12/12 12:43:14;;;;;;;54.03;1.45;;;11.50;99.90;;;;;;5093286;28;20032;-80
2020/12/12 12:45:41;;;;;;;43.70;1.25;;;11.50;99.90;;;;;;5093061;28;20036;-81
2020/12/12 12:48:08;;;;;;;55.40;2.08;;;11.50;99.90;;;;;;5092893;28;20031;-80
2020/12/12 12:50:37;;;;;;;110.45;2.42;;;11.50;99.90;;;;;;5091960;28;20024;-81
2020/12/12 12:53:08;;;;;;;67.30;1.90;;;11.60;99.90;;;;;;5103728;28;20038;-81
2020/12/12 12:55:36;;;;;;;22.33;1.08;;;11.60;99.90;;;;;;5101061;28;20380;-76
2020/12/12 12:58:05;;;;;;;123.95;5.05;;;11.60;99.90;;;;;;5108965;28;20051;-76
2020/12/12 13:00:36;;;;;;;349.50;10.65;;;11.60;99.90;;;;;;5091910;28;20090;-76
2020/12/12 13:03:03;;;;;;;;;;;11.60;99.90;;;;;;5093148;28;20369;-77